createdAt,value
2022-08-14T15:04:57.877Z,2.30
2022-08-14T15:10:00.723Z,3.45
2022-08-14T15:12:55.420Z,3.63
2022-08-14T15:15:20.286Z,3.30
2022-08-14T15:17:49.912Z,2.80
2022-08-14T15:20:30.406Z,3.08
2022-08-14T15:23:11.708Z,3.60
2022-08-14T15:25:42.485Z,3.25
2022-08-14T15:28:13.134Z,4.37
2022-08-14T15:30:59.051Z,3.72
2022-08-14T15:34:13.144Z,3.80
2022-08-14T15:36:37.588Z,3.28
2022-08-14T15:39:08.690Z,3.42
2022-08-14T15:41:41.492Z,3.25
2022-08-14T15:44:25.417Z,2.63
2022-08-14T15:46:58.220Z,3.13
2022-08-14T15:49:34.595Z,3.40
2022-08-14T15:52:07.864Z,4.00
2022-08-14T15:54:39.084Z,3.35
2022-08-14T15:57:11.486Z,3.28
2022-08-14T15:59:58.970Z,3.20
2022-08-14T16:02:28.662Z,5.10
2022-08-14T16:04:59.120Z,4.45
2022-08-14T16:07:30.086Z,4.63
2022-08-14T16:10:28.348Z,4.65
2022-08-14T16:12:51.494Z,3.80
2022-08-14T16:15:24.207Z,3.70
2022-08-14T16:17:54.528Z,4.53
2022-08-14T16:20:41.122Z,3.30
2022-08-14T16:23:18.170Z,3.20
2022-08-14T16:25:52.699Z,3.35
2022-08-14T16:30:57.645Z,3.75
2022-08-14T16:33:58.961Z,3.63
2022-08-14T16:36:30.774Z,3.63
2022-08-14T16:39:06.287Z,4.32
2022-08-14T16:41:39.452Z,4.03
2022-08-14T16:44:21.964Z,4.30
2022-08-14T16:47:06.280Z,3.58
2022-08-14T16:50:04.060Z,3.78
2022-08-14T16:52:44.349Z,4.00
2022-08-14T16:55:32.192Z,4.65
2022-08-14T16:58:05.342Z,4.68
2022-08-14T17:00:43.864Z,4.28
2022-08-14T17:03:15.245Z,9.10
2022-08-14T17:05:46.688Z,4.45
2022-08-14T17:11:12.932Z,4.22
2022-08-14T17:13:59.512Z,3.78
2022-08-14T17:19:13.555Z,4.07
2022-08-14T17:21:47.155Z,5.72
2022-08-14T17:44:33.471Z,4.72
2022-08-14T17:52:35.905Z,3.57
2022-08-14T18:00:57.876Z,4.13
2022-08-14T18:03:50.240Z,4.10
2022-08-14T18:06:39.767Z,4.05
2022-08-14T18:09:25.247Z,4.10
2022-08-14T18:12:03.690Z,4.38
2022-08-14T18:14:48.692Z,5.40
2022-08-14T18:17:23.735Z,9.30
2022-08-14T18:19:53.766Z,7.20
2022-08-14T18:22:37.795Z,6.53
2022-08-14T18:25:19.167Z,6.97
2022-08-14T18:27:52.436Z,15.10
2022-08-14T18:30:31.966Z,26.52
2022-08-14T18:33:22.845Z,12.88
2022-08-14T18:35:59.922Z,7.72
2022-08-14T18:38:59.751Z,9.73
2022-08-14T18:41:36.948Z,7.80
2022-08-14T18:44:10.623Z,5.75
2022-08-14T18:47:25.558Z,5.70
2022-08-14T18:50:26.284Z,5.75
2022-08-14T18:53:07.676Z,5.38
2022-08-14T18:55:54.653Z,5.97
2022-08-14T18:58:31.452Z,10.63
2022-08-14T19:01:06.471Z,9.68
2022-08-14T19:03:58.371Z,6.70
2022-08-14T19:06:56.701Z,7.25
2022-08-14T19:09:57.902Z,7.40
2022-08-14T19:13:05.307Z,10.05
2022-08-14T19:15:44.953Z,9.35
2022-08-14T19:18:29.341Z,10.07
2022-08-14T19:21:03.095Z,6.80
2022-08-14T19:23:59.240Z,7.22
2022-08-14T19:26:36.597Z,8.55
2022-08-14T19:29:37.875Z,10.05
2022-08-14T19:32:40.763Z,7.75
2022-08-14T19:35:55.521Z,6.88
2022-08-14T19:38:57.181Z,6.78
2022-08-14T19:41:32.209Z,7.88
2022-08-14T19:44:14.883Z,6.93
2022-08-14T19:47:00.055Z,10.38
2022-08-14T19:50:08.581Z,7.40
2022-08-14T19:52:30.099Z,10.55
2022-08-14T19:55:17.142Z,8.75
2022-08-14T19:57:52.429Z,10.23
2022-08-14T20:00:30.597Z,10.60
2022-08-14T20:03:10.500Z,12.37
2022-08-14T20:05:45.544Z,9.90
2022-08-14T20:10:58.537Z,9.43
2022-08-14T20:12:00.210Z,7.50
2022-08-14T20:14:29.465Z,6.72
2022-08-14T20:17:06.139Z,6.57
2022-08-14T20:19:37.637Z,7.05
2022-08-14T20:22:35.531Z,7.20
2022-08-14T20:25:15.459Z,6.63
2022-08-14T20:27:58.632Z,5.72
2022-08-14T20:30:33.447Z,5.63
2022-08-14T20:33:10.719Z,6.68
2022-08-14T20:35:49.042Z,6.05
2022-08-14T20:38:29.847Z,6.05
2022-08-14T20:41:09.456Z,6.80
2022-08-14T20:44:08.644Z,10.10
2022-08-14T20:46:42.260Z,7.00
2022-08-14T20:49:18.912Z,6.20
2022-08-14T20:51:59.121Z,6.47
2022-08-14T20:54:34.693Z,6.03
2022-08-14T20:57:14.675Z,5.93
2022-08-14T21:02:34.759Z,6.47
2022-08-14T21:24:38.738Z,6.78
2022-08-14T21:27:12.970Z,6.95
2022-08-14T21:29:56.052Z,6.85
2022-08-14T21:32:50.589Z,6.28
2022-08-14T21:38:18.253Z,9.70
2022-08-14T21:40:54.204Z,9.10
2022-08-14T21:43:31.545Z,6.28
2022-08-14T21:46:02.465Z,6.30
2022-08-14T22:04:40.576Z,7.63
2022-08-14T22:07:16.979Z,6.75
2022-08-14T22:09:55.465Z,7.13
2022-08-14T22:12:57.202Z,7.82
2022-08-14T22:15:20.728Z,7.60
2022-08-14T22:17:54.213Z,7.32
2022-08-14T22:23:05.646Z,7.55
2022-08-14T22:25:41.096Z,7.97
2022-08-14T22:28:19.698Z,7.45
2022-08-14T22:30:54.644Z,6.90
2022-08-14T22:33:31.118Z,7.30
2022-08-14T22:36:24.787Z,6.88
2022-08-14T22:38:57.481Z,9.20
2022-08-14T22:41:32.638Z,7.28
2022-08-14T22:44:10.750Z,6.50
2022-08-14T22:46:43.427Z,8.15
2022-08-14T22:50:31.791Z,9.52
2022-08-14T22:52:31.880Z,8.45
2022-08-14T22:55:05.732Z,6.70
2022-08-14T22:57:37.218Z,6.72
2022-08-14T23:00:20.306Z,8.85
2022-08-14T23:03:01.611Z,8.80
2022-08-14T23:05:38.753Z,7.38
2022-08-14T23:08:58.608Z,7.35
2022-08-14T23:11:01.867Z,7.22
2022-08-14T23:13:33.427Z,6.85
2022-08-14T23:16:03.153Z,7.10
2022-08-14T23:18:32.897Z,6.95
2022-08-14T23:21:02.740Z,7.57
2022-08-14T23:23:32.655Z,8.02
2022-08-14T23:26:48.876Z,5.60
2022-08-14T23:28:58.609Z,7.05
2022-08-14T23:31:36.122Z,8.52
2022-08-14T23:34:10.714Z,6.20
2022-08-14T23:36:53.331Z,7.07
2022-08-14T23:39:29.925Z,7.03
2022-08-14T23:42:07.602Z,6.50
2022-08-14T23:44:39.448Z,6.18
2022-08-14T23:47:26.164Z,7.40
2022-08-14T23:50:03.561Z,8.90
2022-08-14T23:53:06.792Z,6.28
2022-08-14T23:55:34.099Z,5.70
2022-08-14T23:58:05.061Z,7.72
